createdAt,value
2023-05-04T00:00:11.463Z,55.00
2023-05-04T00:01:11.429Z,55.10
2023-05-04T00:02:11.411Z,55.20
2023-05-04T00:03:11.513Z,55.20
2023-05-04T00:04:11.496Z,55.10
2023-05-04T00:05:11.347Z,55.10
2023-05-04T00:06:11.375Z,55.30
2023-05-04T00:07:11.365Z,55.10
2023-05-04T00:08:11.325Z,55.20
2023-05-04T00:09:11.319Z,55.41
2023-05-04T00:10:11.327Z,55.51
2023-05-04T00:11:11.320Z,55.41
2023-05-04T00:12:11.950Z,55.51
2023-05-04T00:13:11.349Z,55.51
2023-05-04T00:14:11.316Z,55.51
2023-05-04T00:15:11.289Z,55.51
2023-05-04T00:16:11.364Z,55.61
2023-05-04T00:17:11.247Z,55.74
2023-05-04T00:18:11.217Z,55.74
2023-05-04T00:19:11.273Z,55.74
2023-05-04T00:20:11.278Z,55.84
2023-05-04T00:21:11.245Z,55.94
2023-05-04T00:22:11.170Z,56.04
2023-05-04T00:23:11.170Z,56.04
2023-05-04T00:24:11.145Z,56.15
2023-05-04T00:25:11.146Z,56.15
2023-05-04T00:26:11.130Z,56.24
2023-05-04T00:27:11.147Z,56.35
2023-05-04T00:28:11.177Z,56.35
2023-05-04T00:29:11.150Z,56.65
2023-05-04T00:30:11.146Z,56.65
2023-05-04T00:31:11.149Z,56.65
2023-05-04T00:32:11.060Z,56.65
2023-05-04T00:33:11.114Z,56.55
2023-05-04T00:34:11.077Z,56.55
2023-05-04T00:35:11.046Z,56.45
2023-05-04T00:36:11.020Z,56.45
2023-05-04T00:37:11.029Z,56.35
2023-05-04T00:38:11.031Z,56.35
2023-05-04T00:39:11.022Z,56.35
2023-05-04T00:40:10.996Z,56.45
2023-05-04T00:41:10.972Z,56.48
2023-05-04T00:42:10.963Z,56.48
2023-05-04T00:43:11.007Z,56.58
2023-05-04T00:44:11.033Z,56.55
2023-05-04T00:45:11.274Z,56.58
2023-05-04T00:46:10.902Z,56.58
2023-05-04T00:47:10.955Z,56.88
2023-05-04T00:48:10.981Z,56.68
2023-05-04T00:49:10.886Z,56.58
2023-05-04T00:50:10.916Z,56.68
2023-05-04T00:51:10.873Z,56.58
2023-05-04T00:52:10.969Z,56.68
2023-05-04T00:53:10.847Z,56.78
2023-05-04T00:54:10.865Z,56.99
2023-05-04T00:55:10.855Z,56.99
2023-05-04T00:56:10.834Z,57.09
2023-05-04T00:57:10.874Z,57.29
2023-05-04T00:58:10.803Z,57.60
2023-05-04T00:59:10.790Z,58.03
2023-05-04T01:00:10.795Z,58.14
2023-05-04T01:01:10.829Z,58.34
2023-05-04T01:02:10.771Z,58.34
2023-05-04T01:03:10.879Z,58.54
2023-05-04T01:04:11.057Z,58.75
2023-05-04T01:05:10.743Z,58.64
2023-05-04T01:06:10.737Z,58.64
2023-05-04T01:07:10.845Z,58.95
2023-05-04T01:08:10.975Z,58.75
2023-05-04T01:09:10.670Z,58.95
2023-05-04T01:10:10.742Z,58.85
2023-05-04T01:11:10.676Z,58.85
2023-05-04T01:12:10.660Z,58.54
2023-05-04T01:13:10.780Z,58.95
2023-05-04T01:14:10.693Z,58.75
2023-05-04T01:15:10.621Z,59.05
2023-05-04T01:16:10.650Z,59.36
2023-05-04T01:17:10.671Z,59.36
2023-05-04T01:18:10.616Z,59.16
2023-05-04T01:19:11.337Z,59.16
2023-05-04T01:20:10.568Z,59.16
2023-05-04T01:21:10.562Z,59.26
2023-05-04T01:22:10.566Z,59.36
2023-05-04T01:23:10.546Z,59.56
2023-05-04T01:24:10.548Z,59.05
2023-05-04T01:25:10.558Z,59.05
2023-05-04T01:26:10.524Z,59.26
2023-05-04T01:27:10.608Z,59.56
2023-05-04T01:28:10.474Z,58.95
2023-05-04T01:29:10.510Z,59.36
2023-05-04T01:30:10.488Z,59.36
2023-05-04T01:31:10.550Z,59.77
2023-05-04T01:32:10.434Z,58.95
2023-05-04T01:33:10.505Z,59.59
2023-05-04T01:34:10.641Z,59.69
2023-05-04T01:35:10.416Z,59.80
2023-05-04T01:36:10.395Z,59.56
2023-05-04T01:37:10.400Z,58.67
2023-05-04T01:38:10.429Z,59.16
2023-05-04T01:39:10.406Z,58.85
2023-05-04T01:40:10.387Z,58.67
2023-05-04T01:41:10.368Z,57.75
2023-05-04T01:42:10.331Z,57.96
2023-05-04T01:43:10.984Z,58.26
2023-05-04T01:44:10.305Z,58.44
2023-05-04T01:45:10.346Z,58.37
2023-05-04T01:46:10.335Z,57.86
2023-05-04T01:47:10.297Z,57.86
2023-05-04T01:48:10.427Z,58.47
2023-05-04T01:49:10.316Z,58.37
2023-05-04T01:50:10.289Z,58.57
2023-05-04T01:51:10.245Z,58.78
2023-05-04T01:52:10.295Z,58.23
2023-05-04T01:53:10.246Z,57.75
2023-05-04T01:54:10.238Z,58.06
2023-05-04T01:55:10.252Z,58.06
2023-05-04T01:56:10.887Z,57.96
2023-05-04T01:57:10.190Z,58.26
2023-05-04T01:58:10.195Z,59.18
2023-05-04T01:59:10.167Z,58.37
2023-05-04T02:00:10.183Z,59.08
2023-05-04T02:01:10.192Z,58.47
2023-05-04T02:02:10.156Z,58.26
2023-05-04T02:03:10.234Z,58.16
2023-05-04T02:04:10.271Z,57.86
2023-05-04T02:05:10.142Z,58.67
2023-05-04T02:06:10.091Z,58.16
2023-05-04T02:07:10.093Z,58.78
2023-05-04T02:08:10.097Z,57.86
2023-05-04T02:09:10.179Z,57.65
2023-05-04T02:10:10.068Z,57.55
2023-05-04T02:11:10.069Z,57.55
2023-05-04T02:12:10.032Z,57.65
2023-05-04T02:13:10.033Z,58.37
2023-05-04T02:14:10.050Z,57.55
2023-05-04T02:15:10.027Z,57.55
2023-05-04T02:16:10.038Z,58.16
2023-05-04T02:17:09.975Z,57.75
2023-05-04T02:18:10.004Z,58.57
2023-05-04T02:19:09.965Z,58.06
2023-05-04T02:20:09.947Z,58.37
2023-05-04T02:21:09.960Z,58.67
2023-05-04T02:22:09.962Z,57.55
2023-05-04T02:23:09.917Z,57.96
2023-05-04T02:24:09.898Z,57.45
2023-05-04T02:25:09.925Z,58.06
2023-05-04T02:26:09.926Z,58.37
2023-05-04T02:27:09.937Z,58.06
2023-05-04T02:28:09.854Z,58.37
2023-05-04T02:29:09.867Z,57.96
2023-05-04T02:30:09.872Z,58.06
2023-05-04T02:31:09.881Z,58.26
2023-05-04T02:32:09.811Z,58.26
2023-05-04T02:33:09.819Z,57.96
2023-05-04T02:34:09.785Z,58.37
2023-05-04T02:35:09.774Z,57.96
2023-05-04T02:36:09.820Z,58.57
2023-05-04T02:37:09.809Z,57.75
2023-05-04T02:38:09.765Z,58.37
2023-05-04T02:39:09.776Z,57.45
2023-05-04T02:40:09.791Z,58.06
2023-05-04T02:41:09.731Z,57.86
2023-05-04T02:42:09.729Z,58.37
2023-05-04T02:43:09.702Z,58.29
2023-05-04T02:44:09.697Z,57.78
2023-05-04T02:45:09.687Z,58.19
2023-05-04T02:46:09.716Z,57.78
2023-05-04T02:47:09.699Z,57.88
2023-05-04T02:48:09.684Z,58.80
2023-05-04T02:49:09.666Z,58.39
2023-05-04T02:50:09.640Z,58.39
2023-05-04T02:51:09.674Z,58.39
2023-05-04T02:52:09.641Z,57.88
2023-05-04T02:53:09.640Z,57.88
2023-05-04T02:54:09.604Z,57.57
2023-05-04T02:55:09.624Z,57.57
2023-05-04T02:56:09.606Z,57.48
2023-05-04T02:57:09.588Z,57.48
2023-05-04T02:58:09.588Z,57.57
2023-05-04T02:59:09.583Z,57.57
2023-05-04T03:00:09.513Z,57.88
2023-05-04T03:01:09.687Z,57.68
2023-05-04T03:02:09.533Z,57.68
2023-05-04T03:03:09.511Z,57.68
2023-05-04T03:04:09.559Z,57.68
2023-05-04T03:05:09.483Z,57.68
2023-05-04T03:06:09.520Z,57.68
2023-05-04T03:07:09.478Z,57.68
2023-05-04T03:08:09.497Z,57.78
2023-05-04T03:09:09.457Z,57.68
2023-05-04T03:10:09.512Z,57.88
2023-05-04T03:11:09.508Z,57.98
2023-05-04T03:12:09.429Z,57.98
2023-05-04T03:13:09.427Z,57.98
2023-05-04T03:14:09.446Z,58.09
2023-05-04T03:15:09.350Z,58.11
2023-05-04T03:16:09.436Z,58.09
2023-05-04T03:17:09.403Z,58.19
2023-05-04T03:18:09.573Z,58.11
2023-05-04T03:19:09.463Z,58.01
2023-05-04T03:20:09.441Z,58.11
2023-05-04T03:21:09.366Z,58.22
2023-05-04T03:22:09.284Z,58.22
2023-05-04T03:23:09.281Z,58.22
2023-05-04T03:24:09.241Z,58.32
2023-05-04T03:25:09.243Z,58.39
2023-05-04T03:26:09.204Z,58.52
2023-05-04T03:27:09.268Z,58.39
2023-05-04T03:28:09.239Z,57.88
2023-05-04T03:29:09.254Z,58.09
2023-05-04T03:30:09.235Z,58.09
2023-05-04T03:31:09.140Z,58.19
2023-05-04T03:32:09.179Z,58.01
2023-05-04T03:33:09.192Z,58.11
2023-05-04T03:34:09.176Z,58.09
2023-05-04T03:35:09.128Z,58.19
2023-05-04T03:36:09.171Z,58.09
2023-05-04T03:37:09.088Z,58.09
2023-05-04T03:38:09.130Z,58.19
2023-05-04T03:39:09.159Z,58.29
2023-05-04T03:40:09.085Z,58.29
2023-05-04T03:41:09.111Z,58.50
2023-05-04T03:42:09.072Z,58.39
2023-05-04T03:43:09.065Z,58.50
2023-05-04T03:44:09.027Z,58.29
2023-05-04T03:45:10.000Z,58.29
2023-05-04T03:46:09.046Z,58.19
2023-05-04T03:47:09.018Z,58.29
2023-05-04T03:48:09.005Z,58.39
2023-05-04T03:49:08.966Z,58.29
2023-05-04T03:50:08.965Z,58.50
2023-05-04T03:51:08.975Z,58.62
2023-05-04T03:52:09.052Z,59.14
2023-05-04T03:53:08.996Z,59.00
2023-05-04T03:54:08.938Z,58.60
2023-05-04T03:55:08.902Z,58.60
2023-05-04T03:56:08.901Z,58.39
2023-05-04T03:57:09.918Z,58.39
2023-05-04T03:58:08.967Z,58.50
2023-05-04T03:59:08.860Z,58.39
2023-05-04T04:00:08.890Z,58.39
2023-05-04T04:01:08.843Z,58.50
2023-05-04T04:02:08.851Z,58.50
2023-05-04T04:03:09.122Z,58.50
2023-05-04T04:04:09.026Z,58.29
2023-05-04T04:05:08.834Z,58.39
2023-05-04T04:06:08.832Z,58.60
2023-05-04T04:07:08.879Z,58.60
2023-05-04T04:08:08.890Z,58.80
2023-05-04T04:09:08.812Z,58.91
2023-05-04T04:10:08.808Z,58.91
2023-05-04T04:11:08.799Z,58.91
2023-05-04T04:12:09.403Z,58.91
2023-05-04T04:13:08.766Z,58.80
2023-05-04T04:14:08.740Z,58.98
2023-05-04T04:15:08.727Z,58.91
2023-05-04T04:16:08.724Z,59.21
2023-05-04T04:17:08.699Z,58.91
2023-05-04T04:18:08.723Z,59.00
2023-05-04T04:19:08.655Z,58.67
2023-05-04T04:20:08.633Z,58.80
2023-05-04T04:21:08.673Z,59.00
2023-05-04T04:22:08.672Z,58.91
2023-05-04T04:23:08.662Z,58.67
2023-05-04T04:24:08.622Z,58.67
2023-05-04T04:25:08.608Z,58.80
2023-05-04T04:26:08.890Z,58.91
2023-05-04T04:27:08.610Z,58.80
2023-05-04T04:28:08.784Z,58.91
2023-05-04T04:29:08.671Z,59.00
2023-05-04T04:30:08.725Z,58.91
2023-05-04T04:31:09.086Z,58.91
2023-05-04T04:32:08.640Z,59.00
2023-05-04T04:33:08.826Z,59.11
2023-05-04T04:34:08.879Z,59.21
2023-05-04T04:35:08.532Z,59.31
2023-05-04T04:36:09.185Z,59.21
2023-05-04T04:37:08.593Z,59.21
2023-05-04T04:38:08.843Z,59.21
2023-05-04T04:39:08.630Z,59.31
2023-05-04T04:40:08.770Z,59.62
2023-05-04T04:41:08.673Z,59.72
2023-05-04T04:42:08.517Z,59.62
2023-05-04T04:43:08.520Z,59.92
2023-05-04T04:44:08.599Z,59.92
2023-05-04T04:45:08.472Z,60.13
2023-05-04T04:46:08.522Z,59.92
2023-05-04T04:47:08.713Z,59.41
2023-05-04T04:48:08.502Z,59.62
2023-05-04T04:49:08.677Z,59.52
2023-05-04T04:50:08.544Z,59.62
2023-05-04T04:51:08.702Z,59.52
2023-05-04T04:52:09.128Z,59.52
2023-05-04T04:53:08.681Z,59.52
2023-05-04T04:54:08.452Z,59.52
2023-05-04T04:55:08.629Z,59.52
2023-05-04T04:56:08.677Z,59.49
2023-05-04T04:57:08.295Z,59.41
2023-05-04T04:58:08.472Z,59.52
2023-05-04T04:59:08.289Z,59.52
2023-05-04T05:00:08.308Z,59.62
2023-05-04T05:01:08.727Z,59.69
2023-05-04T05:02:08.337Z,59.92
2023-05-04T05:03:08.585Z,59.92
2023-05-04T05:04:08.494Z,60.10
2023-05-04T05:05:08.943Z,59.92
2023-05-04T05:06:08.438Z,59.72
2023-05-04T05:07:08.697Z,59.82
2023-05-04T05:08:09.189Z,59.62
2023-05-04T05:09:08.765Z,59.72
2023-05-04T05:10:08.677Z,59.62
2023-05-04T05:11:08.312Z,59.72
2023-05-04T05:12:08.228Z,59.82
2023-05-04T05:13:08.246Z,59.82
2023-05-04T05:14:08.237Z,59.82
2023-05-04T05:15:08.234Z,59.82
2023-05-04T05:16:08.745Z,59.72
2023-05-04T05:17:08.656Z,59.52
2023-05-04T05:18:08.076Z,59.49
2023-05-04T05:19:08.247Z,59.39
2023-05-04T05:20:08.125Z,59.39
2023-05-04T05:21:08.090Z,59.18
2023-05-04T05:22:08.305Z,59.18
2023-05-04T05:23:08.066Z,59.18
2023-05-04T05:24:08.057Z,59.08
2023-05-04T05:25:08.021Z,59.08
2023-05-04T05:26:08.434Z,59.08
2023-05-04T05:27:08.008Z,59.08
2023-05-04T05:28:07.978Z,59.18
2023-05-04T05:29:07.939Z,59.28
2023-05-04T05:30:08.071Z,59.39
2023-05-04T05:31:07.962Z,59.41
2023-05-04T05:32:07.943Z,59.82
2023-05-04T05:33:07.941Z,59.82
2023-05-04T05:34:08.030Z,59.72
2023-05-04T05:35:07.916Z,59.59
2023-05-04T05:36:07.922Z,59.69
2023-05-04T05:37:07.905Z,59.49
2023-05-04T05:38:07.880Z,59.69
2023-05-04T05:39:07.861Z,59.18
2023-05-04T05:40:08.077Z,58.98
2023-05-04T05:41:07.820Z,58.75
2023-05-04T05:42:08.009Z,58.44
2023-05-04T05:43:07.809Z,58.11
2023-05-04T05:44:07.822Z,57.67
2023-05-04T05:45:07.738Z,56.73
2023-05-04T05:46:07.862Z,55.58
2023-05-04T05:47:07.879Z,55.02
2023-05-04T05:48:07.776Z,54.41
2023-05-04T05:49:07.715Z,54.18
2023-05-04T05:50:08.007Z,53.88
2023-05-04T05:51:07.839Z,53.55
2023-05-04T05:52:08.600Z,53.57
2023-05-04T05:53:07.791Z,53.78
2023-05-04T05:54:07.793Z,54.18
2023-05-04T05:55:07.687Z,54.18
2023-05-04T05:56:07.704Z,54.41
2023-05-04T05:57:07.672Z,54.39
2023-05-04T05:58:07.622Z,54.18
2023-05-04T05:59:07.637Z,54.11
2023-05-04T06:00:07.822Z,54.61
2023-05-04T06:01:07.632Z,54.72
2023-05-04T06:02:07.733Z,54.82
2023-05-04T06:03:07.716Z,54.61
2023-05-04T06:04:07.792Z,54.64
2023-05-04T06:05:07.656Z,54.94
2023-05-04T06:06:07.613Z,54.92
2023-05-04T06:07:08.326Z,54.24
2023-05-04T06:08:07.697Z,54.85
2023-05-04T06:09:07.534Z,54.74
2023-05-04T06:10:07.937Z,54.51
2023-05-04T06:11:07.539Z,54.08
2023-05-04T06:12:07.583Z,53.24
2023-05-04T06:13:07.608Z,52.18
2023-05-04T06:14:07.515Z,50.66
2023-05-04T06:15:07.628Z,48.79
2023-05-04T06:16:07.550Z,47.75
2023-05-04T06:17:07.586Z,47.75
2023-05-04T06:18:07.771Z,47.75
2023-05-04T06:19:07.446Z,47.53
2023-05-04T06:20:08.243Z,47.43
2023-05-04T06:21:07.440Z,47.35
2023-05-04T06:22:07.475Z,48.71
2023-05-04T06:23:07.413Z,48.61
2023-05-04T06:24:07.354Z,49.04
2023-05-04T06:25:08.328Z,49.75
2023-05-04T06:26:07.460Z,49.85
2023-05-04T06:27:07.417Z,49.95
2023-05-04T06:28:07.336Z,50.28
2023-05-04T06:29:07.346Z,51.01
2023-05-04T06:30:07.670Z,51.54
2023-05-04T06:31:08.454Z,52.08
2023-05-04T06:32:07.343Z,52.58
2023-05-04T06:33:07.321Z,52.81
2023-05-04T06:34:07.287Z,52.79
2023-05-04T06:35:07.307Z,51.87
2023-05-04T06:36:07.277Z,52.28
2023-05-04T06:37:07.577Z,51.98
2023-05-04T06:38:07.279Z,52.05
2023-05-04T06:39:07.371Z,51.32
2023-05-04T06:40:07.368Z,50.81
2023-05-04T06:41:07.227Z,50.48
2023-05-04T06:42:07.273Z,50.48
2023-05-04T06:43:07.228Z,50.35
2023-05-04T06:44:07.170Z,50.05
2023-05-04T06:45:07.137Z,49.52
2023-05-04T06:46:08.034Z,49.98
2023-05-04T06:47:07.390Z,51.01
2023-05-04T06:48:07.266Z,51.65
2023-05-04T06:49:07.480Z,52.28
2023-05-04T06:50:09.221Z,52.25
2023-05-04T06:51:07.272Z,52.05
2023-05-04T06:52:07.114Z,52.15
2023-05-04T06:53:07.368Z,52.18
2023-05-04T06:54:07.113Z,52.79
2023-05-04T06:55:07.152Z,53.32
2023-05-04T06:56:07.042Z,53.72
2023-05-04T06:57:07.111Z,53.72
2023-05-04T06:58:07.048Z,53.70
2023-05-04T06:59:06.982Z,53.52
2023-05-04T07:00:07.051Z,53.83
2023-05-04T07:01:07.038Z,54.72
2023-05-04T07:02:06.947Z,53.19
2023-05-04T07:03:07.208Z,53.09
2023-05-04T07:04:07.101Z,53.19
2023-05-04T07:05:06.926Z,53.19
2023-05-04T07:06:06.956Z,53.09
2023-05-04T07:07:07.557Z,52.58
2023-05-04T07:08:06.928Z,52.58
2023-05-04T07:09:07.238Z,52.58
2023-05-04T07:10:07.103Z,52.69
2023-05-04T07:11:07.076Z,53.02
2023-05-04T07:12:06.959Z,53.22
2023-05-04T07:13:07.128Z,53.52
2023-05-04T07:14:08.526Z,53.50
2023-05-04T07:15:10.698Z,53.60
2023-05-04T07:16:06.928Z,52.79
2023-05-04T07:17:06.869Z,52.79
2023-05-04T07:18:06.886Z,52.79
2023-05-04T07:19:07.067Z,52.89
2023-05-04T07:20:06.998Z,52.89
2023-05-04T07:21:25.937Z,52.86
2023-05-04T07:22:06.835Z,52.76
2023-05-04T07:23:06.727Z,52.44
2023-05-04T07:24:06.762Z,52.13
2023-05-04T07:25:06.817Z,51.93
2023-05-04T07:26:06.755Z,51.50
2023-05-04T07:27:06.711Z,51.50
2023-05-04T07:28:06.699Z,51.47
2023-05-04T07:29:06.703Z,51.37
2023-05-04T07:30:06.915Z,50.96
2023-05-04T07:31:06.656Z,50.76
2023-05-04T07:32:06.742Z,50.86
2023-05-04T07:33:06.720Z,50.26
2023-05-04T07:34:06.659Z,50.56
2023-05-04T07:35:06.661Z,50.56
2023-05-04T07:36:06.612Z,50.35
2023-05-04T07:37:07.693Z,50.46
2023-05-04T07:38:06.658Z,50.56
2023-05-04T07:39:06.687Z,50.35
2023-05-04T07:40:06.889Z,50.79
2023-05-04T07:41:06.721Z,50.99
2023-05-04T07:42:06.745Z,51.50
2023-05-04T07:43:06.637Z,51.50
2023-05-04T07:44:06.546Z,51.60
2023-05-04T07:45:06.506Z,51.70
2023-05-04T07:46:06.549Z,51.47
2023-05-04T07:47:06.502Z,51.57
2023-05-04T07:48:06.547Z,51.47
2023-05-04T07:49:06.492Z,51.25
2023-05-04T07:50:06.683Z,50.94
2023-05-04T07:51:06.607Z,50.84
2023-05-04T07:52:06.547Z,51.02
2023-05-04T07:53:06.504Z,50.31
2023-05-04T07:54:06.492Z,50.51
2023-05-04T07:55:06.582Z,50.82
2023-05-04T07:56:06.590Z,50.61
2023-05-04T07:57:06.428Z,50.59
2023-05-04T07:58:09.108Z,50.38
2023-05-04T07:59:06.422Z,50.49
2023-05-04T08:00:06.612Z,50.49
2023-05-04T08:01:06.367Z,49.68
2023-05-04T08:02:07.151Z,49.98
2023-05-04T08:03:06.533Z,50.59
2023-05-04T08:04:07.968Z,49.98
2023-05-04T08:05:06.388Z,49.88
2023-05-04T08:06:06.351Z,50.06
2023-05-04T08:07:06.674Z,49.96
2023-05-04T08:08:06.365Z,49.66
2023-05-04T08:09:06.341Z,49.55
2023-05-04T08:10:06.454Z,49.76
2023-05-04T08:11:19.487Z,49.25
2023-05-04T08:12:06.328Z,49.05
2023-05-04T08:13:06.428Z,49.07
2023-05-04T08:14:06.784Z,49.78
2023-05-04T08:15:06.503Z,49.98
2023-05-04T08:16:06.301Z,49.98
2023-05-04T08:17:06.735Z,49.55
2023-05-04T08:18:06.462Z,49.66
2023-05-04T08:19:06.430Z,49.55
2023-05-04T08:20:06.259Z,48.95
2023-05-04T08:21:06.296Z,49.15
2023-05-04T08:22:07.524Z,49.35
2023-05-04T08:23:06.456Z,49.22
2023-05-04T08:24:07.267Z,49.22
2023-05-04T08:25:06.824Z,48.82
2023-05-04T08:26:06.234Z,48.93
2023-05-04T08:27:08.759Z,48.82
2023-05-04T08:28:06.497Z,47.99
2023-05-04T08:29:06.770Z,48.19
2023-05-04T08:30:06.400Z,48.39
2023-05-04T08:31:06.613Z,47.99
2023-05-04T08:32:06.276Z,47.87
2023-05-04T08:33:06.343Z,48.37
2023-05-04T08:34:06.384Z,48.05
2023-05-04T08:35:06.386Z,48.05
2023-05-04T08:36:06.261Z,47.34
2023-05-04T08:37:06.330Z,47.44
2023-05-04T08:38:06.494Z,47.85
2023-05-04T08:39:06.189Z,47.64
2023-05-04T08:40:07.778Z,47.95
2023-05-04T08:41:06.146Z,47.74
2023-05-04T08:42:06.021Z,47.77
2023-05-04T08:43:06.237Z,47.47
2023-05-04T08:44:06.534Z,48.07
2023-05-04T08:45:06.638Z,47.99
2023-05-04T08:46:06.106Z,48.19
2023-05-04T08:47:06.124Z,48.70
2023-05-04T08:48:06.055Z,48.82
2023-05-04T08:49:06.069Z,48.72
2023-05-04T08:50:06.004Z,48.30
2023-05-04T08:51:06.231Z,48.50
2023-05-04T08:52:06.062Z,48.60
2023-05-04T08:53:06.162Z,48.80
2023-05-04T08:54:07.439Z,48.78
2023-05-04T08:55:06.306Z,48.68
2023-05-04T08:56:06.163Z,48.15
2023-05-04T08:57:06.069Z,47.95
2023-05-04T08:58:06.216Z,47.64
2023-05-04T08:59:05.886Z,48.15
2023-05-04T09:00:05.872Z,48.15
2023-05-04T09:01:06.186Z,48.58
2023-05-04T09:02:05.984Z,48.55
2023-05-04T09:03:05.867Z,48.55
2023-05-04T09:04:05.811Z,48.63
2023-05-04T09:05:06.262Z,48.63
2023-05-04T09:06:05.831Z,48.41
2023-05-04T09:07:05.882Z,47.78
2023-05-04T09:08:05.811Z,47.60
2023-05-04T09:09:05.704Z,47.80
2023-05-04T09:10:05.712Z,47.90
2023-05-04T09:11:05.723Z,48.30
2023-05-04T09:12:05.662Z,48.50
2023-05-04T09:13:05.654Z,48.50
2023-05-04T09:14:05.829Z,48.91
2023-05-04T09:15:06.060Z,48.91
2023-05-04T09:16:05.694Z,49.01
2023-05-04T09:17:06.001Z,49.11
2023-05-04T09:18:05.862Z,49.01
2023-05-04T09:19:05.821Z,48.89
2023-05-04T09:20:05.973Z,48.99
2023-05-04T09:21:06.259Z,48.99
2023-05-04T09:22:05.577Z,48.76
2023-05-04T09:23:05.558Z,48.46
2023-05-04T09:24:05.617Z,48.44
2023-05-04T09:25:05.974Z,48.03
2023-05-04T09:26:05.533Z,48.03
2023-05-04T09:27:05.571Z,48.14
2023-05-04T09:28:05.649Z,48.24
2023-05-04T09:29:05.587Z,48.66
2023-05-04T09:30:05.841Z,48.76
2023-05-04T09:31:05.537Z,48.96
2023-05-04T09:32:05.457Z,49.19
2023-05-04T09:33:05.515Z,49.37
2023-05-04T09:34:05.404Z,49.27
2023-05-04T09:35:10.740Z,49.27
2023-05-04T09:36:05.453Z,49.37
2023-05-04T09:37:05.402Z,49.27
2023-05-04T09:38:05.356Z,49.07
2023-05-04T09:39:05.411Z,49.27
2023-05-04T09:40:05.346Z,49.47
2023-05-04T09:41:05.359Z,49.67
2023-05-04T09:42:05.355Z,49.87
2023-05-04T09:43:05.354Z,49.67
2023-05-04T09:44:05.506Z,49.87
2023-05-04T09:45:05.701Z,49.44
2023-05-04T09:46:05.905Z,49.44
2023-05-04T09:47:05.554Z,49.97
2023-05-04T09:48:05.448Z,50.15
2023-05-04T09:49:05.292Z,50.17
2023-05-04T09:50:05.352Z,50.27
2023-05-04T09:51:05.334Z,50.48
2023-05-04T09:52:05.588Z,50.37
2023-05-04T09:53:05.357Z,50.37
2023-05-04T09:54:05.315Z,49.85
2023-05-04T09:55:05.595Z,49.75
2023-05-04T09:56:08.017Z,49.75
2023-05-04T09:57:05.356Z,49.75
2023-05-04T09:58:05.365Z,49.95
2023-05-04T09:59:05.268Z,49.95
2023-05-04T10:00:05.273Z,49.93
2023-05-04T10:01:05.170Z,49.62
2023-05-04T10:02:14.582Z,49.70
2023-05-04T10:03:05.204Z,49.50
2023-05-04T10:04:05.193Z,48.99
2023-05-04T10:05:05.257Z,49.19
2023-05-04T10:06:05.066Z,49.32
2023-05-04T10:07:05.427Z,49.82
2023-05-04T10:08:05.169Z,50.33
2023-05-04T10:09:05.118Z,50.33
2023-05-04T10:10:05.197Z,50.53
2023-05-04T10:11:05.505Z,50.02
2023-05-04T10:12:05.103Z,50.23
2023-05-04T10:13:05.142Z,50.13
2023-05-04T10:14:05.003Z,50.00
2023-05-04T10:15:05.094Z,49.80
2023-05-04T10:16:05.047Z,49.50
2023-05-04T10:17:05.320Z,49.50
2023-05-04T10:18:04.931Z,49.60
2023-05-04T10:19:05.155Z,49.18
2023-05-04T10:20:04.998Z,49.30
2023-05-04T10:21:07.528Z,49.90
2023-05-04T10:22:04.890Z,50.31
2023-05-04T10:23:06.751Z,50.00
2023-05-04T10:24:04.941Z,50.31
2023-05-04T10:25:05.039Z,50.31
2023-05-04T10:26:04.939Z,50.28
2023-05-04T10:27:04.904Z,49.27
2023-05-04T10:28:04.878Z,48.97
2023-05-04T10:29:04.919Z,48.87
2023-05-04T10:30:04.836Z,49.05
2023-05-04T10:31:04.925Z,49.05
2023-05-04T10:32:05.042Z,49.05
2023-05-04T10:33:04.903Z,48.44
2023-05-04T10:34:05.094Z,48.65
2023-05-04T10:35:04.974Z,48.55
2023-05-04T10:36:04.824Z,48.43
2023-05-04T10:37:04.939Z,48.63
2023-05-04T10:38:04.803Z,48.40
2023-05-04T10:39:04.764Z,47.19
2023-05-04T10:40:07.311Z,47.39
2023-05-04T10:41:04.765Z,46.57
2023-05-04T10:42:04.778Z,46.57
2023-05-04T10:43:04.886Z,46.07
2023-05-04T10:44:04.745Z,46.37
2023-05-04T10:45:04.900Z,46.17
2023-05-04T10:46:04.747Z,46.65
2023-05-04T10:47:05.817Z,45.06
2023-05-04T10:48:04.806Z,45.37
2023-05-04T10:49:04.757Z,45.47
2023-05-04T10:50:04.866Z,45.26
2023-05-04T10:51:04.700Z,44.54
2023-05-04T10:52:04.702Z,44.74
2023-05-04T10:53:04.612Z,45.25
2023-05-04T10:54:04.596Z,45.34
2023-05-04T10:55:04.700Z,44.84
2023-05-04T10:56:04.596Z,43.64
2023-05-04T10:57:04.531Z,43.32
2023-05-04T10:58:04.534Z,42.32
2023-05-04T10:59:04.671Z,42.21
2023-05-04T11:00:04.615Z,42.80
2023-05-04T11:49:16.304Z,42.40
2023-05-04T11:49:21.898Z,41.41
2023-05-04T11:50:21.901Z,41.21
2023-05-04T11:51:21.944Z,40.81
2023-05-04T11:52:21.878Z,40.30
2023-05-04T12:24:44.748Z,39.81
2023-05-04T12:24:50.231Z,39.06
2023-05-04T14:41:11.650Z,39.56
2023-05-04T14:41:17.124Z,34.16
2023-05-04T16:57:30.227Z,33.97
2023-05-04T16:57:35.694Z,32.78
2023-05-04T19:13:49.857Z,32.77
2023-05-04T19:13:55.415Z,43.68
2023-05-04T19:14:55.419Z,43.77
2023-05-04T21:31:06.830Z,43.98
2023-05-04T21:31:13.262Z,52.29
2023-05-04T21:32:12.333Z,52.19
2023-05-04T21:33:12.314Z,52.29
2023-05-04T21:34:12.354Z,52.72
2023-05-04T21:35:12.316Z,52.72
2023-05-04T21:36:12.323Z,52.82
2023-05-04T21:37:12.256Z,52.92
2023-05-04T23:55:03.836Z,63.05
2023-05-04T23:56:04.635Z,62.74
2023-05-04T23:57:04.476Z,63.05
2023-05-04T23:58:04.466Z,63.05
2023-05-04T23:59:04.424Z,62.95
